createdAt,value
2018-09-05T04:00:40.633Z,0.00
2018-09-05T04:01:40.601Z,0.00
2018-09-05T04:02:40.581Z,0.00
2018-09-05T04:03:40.557Z,0.00
2018-09-05T04:04:40.554Z,0.00
2018-09-05T04:05:40.558Z,0.00
2018-09-05T04:06:40.534Z,0.00
2018-09-05T04:07:40.523Z,0.00
2018-09-05T04:08:40.501Z,0.00
2018-09-05T04:09:40.496Z,4.00
2018-09-05T04:10:40.545Z,8.00
2018-09-05T04:11:40.474Z,4.00
2018-09-05T04:12:40.463Z,8.00
2018-09-05T04:13:40.445Z,4.00
2018-09-05T04:14:40.432Z,8.00
2018-09-05T04:15:40.433Z,8.00
2018-09-05T04:16:40.408Z,8.00
2018-09-05T04:17:40.396Z,8.00
2018-09-05T04:18:40.388Z,8.00
2018-09-05T04:19:40.380Z,16.00
2018-09-05T04:20:40.376Z,16.00
2018-09-05T04:21:40.361Z,16.00
2018-09-05T04:22:40.343Z,24.00
2018-09-05T04:23:40.332Z,28.00
2018-09-05T04:24:40.318Z,24.00
2018-09-05T04:25:40.323Z,32.00
2018-09-05T04:26:40.299Z,40.00
2018-09-05T04:27:40.285Z,36.00
2018-09-05T04:28:40.276Z,40.00
2018-09-05T04:29:40.264Z,44.00
2018-09-05T04:30:40.267Z,48.00
2018-09-05T04:31:40.243Z,56.00
2018-09-05T04:32:40.228Z,60.00
2018-09-05T04:33:40.217Z,72.00
2018-09-05T04:34:40.236Z,76.00
2018-09-05T04:35:40.217Z,80.00
2018-09-05T04:36:40.181Z,96.00
2018-09-05T04:37:40.171Z,96.00
2018-09-05T04:38:40.161Z,100.00
2018-09-05T04:39:40.150Z,116.00
2018-09-05T04:40:40.148Z,120.00
2018-09-05T04:41:40.154Z,132.00
2018-09-05T04:42:40.114Z,136.00
2018-09-05T04:43:40.109Z,148.00
2018-09-05T04:44:40.101Z,160.00
2018-09-05T04:45:40.095Z,172.00
2018-09-05T04:46:40.072Z,188.00
2018-09-05T04:47:40.082Z,192.00
2018-09-05T04:48:40.049Z,204.00
2018-09-05T04:49:40.035Z,216.00
2018-09-05T04:50:40.041Z,228.00
2018-09-05T04:51:40.016Z,244.00
2018-09-05T04:52:40.047Z,248.00
2018-09-05T04:53:39.994Z,252.00
2018-09-05T04:54:39.987Z,260.00
2018-09-05T04:55:39.982Z,268.00
2018-09-05T04:56:39.956Z,284.00
2018-09-05T04:57:39.945Z,296.00
2018-09-05T04:58:39.937Z,308.00
2018-09-05T04:59:39.924Z,320.00
2018-09-05T05:00:39.926Z,340.00
2018-09-05T05:01:39.899Z,364.00
2018-09-05T05:02:39.889Z,388.00
2018-09-05T05:03:39.885Z,412.00
2018-09-05T05:04:39.869Z,448.00
2018-09-05T05:05:39.879Z,504.00
2018-09-05T05:06:39.848Z,536.00
2018-09-05T05:07:39.833Z,572.00
2018-09-05T05:08:39.823Z,592.00
2018-09-05T05:09:39.824Z,624.00
2018-09-05T05:10:39.811Z,656.00
2018-09-05T05:11:39.788Z,696.00
2018-09-05T05:12:39.898Z,724.00
2018-09-05T05:13:39.768Z,748.00
2018-09-05T05:14:39.755Z,752.00
2018-09-05T05:15:39.755Z,752.00
2018-09-05T05:16:39.729Z,764.00
2018-09-05T05:17:39.722Z,780.00
2018-09-05T05:18:39.712Z,796.00
2018-09-05T05:19:39.696Z,812.00
2018-09-05T05:20:39.700Z,836.00
2018-09-05T05:21:39.692Z,880.00
2018-09-05T05:22:39.662Z,924.00
2018-09-05T05:23:39.730Z,972.00
2018-09-05T05:24:39.639Z,1012.00
2018-09-05T05:25:39.629Z,1024.00
2018-09-05T05:26:39.633Z,1028.00
2018-09-05T05:27:39.608Z,1024.00
2018-09-05T05:28:39.597Z,1016.00
2018-09-05T05:29:39.585Z,1024.00
2018-09-05T05:30:39.573Z,1036.00
2018-09-05T05:31:39.576Z,1048.00
2018-09-05T05:32:39.623Z,1092.00
2018-09-05T05:33:39.542Z,1148.00
2018-09-05T05:34:39.529Z,1184.00
2018-09-05T05:35:39.516Z,1236.00
2018-09-05T05:36:39.521Z,1272.00
2018-09-05T05:37:39.494Z,1300.00
2018-09-05T05:38:39.488Z,1316.00
2018-09-05T05:39:39.470Z,1332.00
2018-09-05T05:40:39.459Z,1356.00
2018-09-05T05:41:39.462Z,1384.00
2018-09-05T05:42:39.435Z,1424.00
2018-09-05T05:43:39.424Z,1484.00
2018-09-05T05:44:39.418Z,1552.00
2018-09-05T05:45:39.402Z,1604.00
2018-09-05T05:46:39.451Z,1596.00
2018-09-05T05:47:39.381Z,1572.00
2018-09-05T05:48:39.369Z,1568.00
2018-09-05T05:49:39.360Z,1576.00
2018-09-05T05:50:39.354Z,1572.00
2018-09-05T05:51:39.350Z,1592.00
2018-09-05T05:52:39.324Z,1624.00
2018-09-05T05:53:39.313Z,1648.00
2018-09-05T05:54:39.306Z,1676.00
2018-09-05T05:55:39.288Z,1724.00
2018-09-05T05:56:39.290Z,1768.00
2018-09-05T05:57:39.268Z,1836.00
2018-09-05T05:58:39.255Z,1952.00
2018-09-05T05:59:39.248Z,2052.00
2018-09-05T06:00:39.237Z,2176.00
2018-09-05T06:01:39.235Z,2264.00
2018-09-05T06:02:39.211Z,2328.00
2018-09-05T06:03:39.205Z,2360.00
2018-09-05T06:04:39.187Z,2420.00
2018-09-05T06:05:39.179Z,2492.00
2018-09-05T06:06:39.179Z,2556.00
2018-09-05T06:07:39.167Z,2612.00
2018-09-05T06:08:39.146Z,2644.00
2018-09-05T06:09:39.135Z,2668.00
2018-09-05T06:10:39.118Z,2668.00
2018-09-05T06:11:39.120Z,2684.00
2018-09-05T06:12:39.101Z,2716.00
2018-09-05T06:13:39.090Z,2700.00
2018-09-05T06:14:39.075Z,2680.00
2018-09-05T06:15:39.158Z,2712.00
2018-09-05T06:16:39.066Z,2728.00
2018-09-05T06:17:39.062Z,2732.00
2018-09-05T06:18:39.028Z,2728.00
2018-09-05T06:19:39.017Z,2732.00
2018-09-05T06:20:39.006Z,2692.00
2018-09-05T06:21:39.007Z,2676.00
2018-09-05T06:22:38.983Z,2664.00
2018-09-05T06:23:38.977Z,2688.00
2018-09-05T06:24:38.964Z,2720.00
2018-09-05T06:25:38.950Z,2760.00
2018-09-05T06:26:38.955Z,2796.00
2018-09-05T06:27:38.950Z,2840.00
2018-09-05T06:28:38.922Z,2924.00
2018-09-05T06:29:38.907Z,3004.00
2018-09-05T06:30:38.967Z,3048.00
2018-09-05T06:31:38.896Z,3056.00
2018-09-05T06:32:38.916Z,3028.00
2018-09-05T06:33:38.859Z,3000.00
2018-09-05T06:34:38.850Z,3004.00
2018-09-05T06:35:38.902Z,3232.00
2018-09-05T06:36:38.841Z,4188.00
2018-09-05T06:37:38.819Z,4812.00
2018-09-05T06:38:38.822Z,5136.00
2018-09-05T06:39:38.796Z,5956.00
2018-09-05T06:40:38.781Z,6152.00
2018-09-05T06:41:38.779Z,6232.00
2018-09-05T06:42:38.760Z,6308.00
2018-09-05T06:43:38.760Z,6396.00
2018-09-05T06:44:38.738Z,6492.00
2018-09-05T06:45:38.724Z,6568.00
2018-09-05T06:46:38.724Z,6628.00
2018-09-05T06:47:38.711Z,6716.00
2018-09-05T06:48:38.692Z,6772.00
2018-09-05T06:49:38.682Z,6828.00
2018-09-05T06:50:38.675Z,6900.00
2018-09-05T06:51:38.668Z,7032.00
2018-09-05T06:52:38.645Z,7108.00
2018-09-05T06:53:38.634Z,7180.00
2018-09-05T06:54:38.623Z,7252.00
2018-09-05T06:55:38.613Z,7324.00
2018-09-05T06:56:38.613Z,7408.00
2018-09-05T06:57:38.593Z,7512.00
2018-09-05T06:58:38.578Z,7612.00
2018-09-05T06:59:38.566Z,7752.00
2018-09-05T07:00:38.556Z,7856.00
2018-09-05T07:01:38.555Z,7952.00
2018-09-05T07:02:38.532Z,8004.00
2018-09-05T07:03:38.547Z,8068.00
2018-09-05T07:04:38.513Z,8168.00
2018-09-05T07:05:38.498Z,8256.00
2018-09-05T07:06:38.556Z,8332.00
2018-09-05T07:07:38.476Z,8384.00
2018-09-05T07:08:38.465Z,8420.00
2018-09-05T07:09:38.454Z,8460.00
2018-09-05T07:10:38.442Z,8468.00
2018-09-05T07:11:38.446Z,8620.00
2018-09-05T07:12:38.422Z,8732.00
2018-09-05T07:13:38.409Z,8784.00
2018-09-05T07:14:38.468Z,8852.00
2018-09-05T07:15:38.384Z,8940.00
2018-09-05T07:16:38.386Z,9076.00
2018-09-05T07:17:38.397Z,9212.00
2018-09-05T07:18:38.352Z,9288.00
2018-09-05T07:19:38.340Z,9324.00
2018-09-05T07:20:38.334Z,9376.00
2018-09-05T07:21:38.341Z,9412.00
2018-09-05T07:22:38.307Z,9476.00
2018-09-05T07:23:38.303Z,9576.00
2018-09-05T07:24:38.285Z,9620.00
2018-09-05T07:25:38.286Z,9620.00
2018-09-05T07:26:38.298Z,9700.00
2018-09-05T07:27:38.359Z,9800.00
2018-09-05T07:28:38.241Z,9840.00
2018-09-05T07:29:38.228Z,9904.00
2018-09-05T07:30:38.472Z,9936.00
2018-09-05T07:31:38.206Z,9992.00
2018-09-05T07:32:38.213Z,10140.00
2018-09-05T07:33:38.183Z,10472.00
2018-09-05T07:34:38.173Z,12256.00
2018-09-05T07:35:38.221Z,12576.00
2018-09-05T07:36:38.150Z,10968.00
2018-09-05T07:37:38.151Z,10748.00
2018-09-05T07:38:38.131Z,10816.00
2018-09-05T07:39:38.204Z,10884.00
2018-09-05T07:40:38.385Z,10968.00
2018-09-05T07:41:38.159Z,11056.00
2018-09-05T07:42:38.093Z,11116.00
2018-09-05T07:43:38.126Z,11176.00
2018-09-05T07:44:38.062Z,11276.00
2018-09-05T07:45:38.052Z,11364.00
2018-09-05T07:46:38.039Z,11456.00
2018-09-05T07:47:38.038Z,11524.00
2018-09-05T07:48:38.020Z,11632.00
2018-09-05T07:49:38.004Z,11636.00
2018-09-05T07:50:38.102Z,11676.00
2018-09-05T07:51:37.984Z,11772.00
2018-09-05T07:52:37.982Z,11800.00
2018-09-05T07:53:37.962Z,11868.00
2018-09-05T07:54:37.950Z,11944.00
2018-09-05T07:55:38.022Z,11944.00
2018-09-05T07:56:37.993Z,11964.00
2018-09-05T07:57:37.948Z,12032.00
2018-09-05T07:58:37.902Z,12080.00
2018-09-05T07:59:37.891Z,12168.00
2018-09-05T08:00:37.886Z,12208.00
2018-09-05T08:01:37.869Z,12208.00
2018-09-05T08:02:37.872Z,12204.00
2018-09-05T08:03:37.850Z,12248.00
2018-09-05T08:04:37.838Z,12304.00
2018-09-05T08:05:37.828Z,12388.00
2018-09-05T08:06:37.884Z,12504.00
2018-09-05T08:07:37.812Z,12700.00
2018-09-05T08:08:37.792Z,14080.00
2018-09-05T08:09:37.793Z,20672.00
2018-09-05T08:10:37.769Z,29312.00
2018-09-05T08:11:37.776Z,33312.00
2018-09-05T08:12:37.759Z,33472.00
2018-09-05T08:13:37.739Z,35808.00
2018-09-05T08:14:37.724Z,34848.00
2018-09-05T08:15:37.714Z,32448.00
2018-09-05T08:16:37.702Z,21568.00
2018-09-05T08:17:37.704Z,17440.00
2018-09-05T08:18:37.678Z,15584.00
2018-09-05T08:19:37.671Z,13312.00
2018-09-05T08:20:37.655Z,13312.00
2018-09-05T08:21:37.646Z,13312.00
2018-09-05T08:22:37.654Z,13376.00
2018-09-05T08:23:37.623Z,13536.00
2018-09-05T08:24:37.664Z,15040.00
2018-09-05T08:25:37.600Z,22176.00
2018-09-05T08:26:37.593Z,31680.00
2018-09-05T08:27:37.589Z,34912.00
2018-09-05T08:28:37.569Z,34208.00
2018-09-05T08:29:37.632Z,34848.00
2018-09-05T08:30:37.546Z,34368.00
2018-09-05T08:31:37.532Z,30176.00
2018-09-05T08:32:37.533Z,30560.00
2018-09-05T08:33:37.511Z,20960.00
2018-09-05T08:34:37.527Z,15904.00
2018-09-05T08:35:37.556Z,15296.00
2018-09-05T08:36:37.666Z,15232.00
2018-09-05T08:37:37.858Z,15168.00
2018-09-05T08:38:37.502Z,15040.00
2018-09-05T08:39:37.464Z,15072.00
2018-09-05T08:40:37.433Z,15328.00
2018-09-05T08:41:37.429Z,16416.00
2018-09-05T08:42:37.469Z,21120.00
2018-09-05T08:43:37.404Z,25568.00
2018-09-05T08:44:37.527Z,26624.00
2018-09-05T08:45:37.556Z,26016.00
2018-09-05T08:46:37.365Z,26592.00
2018-09-05T08:47:37.368Z,27008.00
2018-09-05T08:48:37.432Z,26624.00
2018-09-05T08:49:37.363Z,27808.00
2018-09-05T08:50:37.319Z,27872.00
2018-09-05T08:51:37.325Z,26944.00
2018-09-05T08:52:37.344Z,28064.00
2018-09-05T08:53:37.287Z,28864.00
2018-09-05T08:54:37.285Z,29856.00
2018-09-05T08:55:37.265Z,31488.00
2018-09-05T08:56:37.259Z,29888.00
2018-09-05T08:57:37.265Z,29120.00
2018-09-05T08:58:37.261Z,30016.00
2018-09-05T08:59:37.222Z,30048.00
2018-09-05T09:00:37.239Z,30720.00
2018-09-05T09:01:37.200Z,35136.00
2018-09-05T09:02:37.212Z,48352.00
2018-09-05T09:03:37.175Z,59904.00
2018-09-05T09:04:37.229Z,62400.00
2018-09-05T09:05:37.159Z,60896.00
2018-09-05T09:06:37.140Z,54240.00
2018-09-05T09:07:37.129Z,36704.00
2018-09-05T09:08:37.128Z,25632.00
2018-09-05T09:09:37.112Z,16928.00
2018-09-05T09:10:37.097Z,13696.00
2018-09-05T09:11:37.115Z,13376.00
2018-09-05T09:12:37.079Z,13024.00
2018-09-05T09:13:37.074Z,12832.00
2018-09-05T09:14:37.077Z,12612.00
2018-09-05T09:15:37.045Z,12472.00
2018-09-05T09:16:37.029Z,12404.00
2018-09-05T09:17:37.017Z,12304.00
2018-09-05T09:18:37.020Z,12216.00
2018-09-05T09:19:36.998Z,12160.00
2018-09-05T09:20:36.996Z,12044.00
2018-09-05T09:21:36.973Z,12076.00
2018-09-05T09:22:36.963Z,12052.00
2018-09-05T09:23:36.961Z,11988.00
2018-09-05T09:24:36.938Z,11932.00
2018-09-05T09:25:36.929Z,11856.00
2018-09-05T09:26:36.920Z,11816.00
2018-09-05T09:27:36.936Z,11740.00
2018-09-05T09:28:36.905Z,11696.00
2018-09-05T09:29:36.887Z,11668.00
2018-09-05T09:30:36.873Z,11636.00
2018-09-05T09:31:36.862Z,11568.00
2018-09-05T09:32:36.852Z,11488.00
2018-09-05T09:33:36.852Z,11400.00
2018-09-05T09:34:36.827Z,11316.00
2018-09-05T09:35:36.817Z,11244.00
2018-09-05T09:36:36.810Z,11172.00
2018-09-05T09:37:36.800Z,10944.00
2018-09-05T09:38:36.796Z,10720.00
2018-09-05T09:39:36.784Z,10556.00
2018-09-05T09:40:36.761Z,10504.00
2018-09-05T09:41:36.750Z,10444.00
2018-09-05T09:42:36.738Z,10388.00
2018-09-05T09:43:36.739Z,10332.00
2018-09-05T09:44:36.716Z,9980.00
2018-09-05T09:45:36.706Z,9064.00
2018-09-05T09:46:36.713Z,7964.00
2018-09-05T09:47:36.681Z,7180.00
2018-09-05T09:48:36.682Z,6484.00
2018-09-05T09:49:36.662Z,6056.00
2018-09-05T09:50:36.648Z,5776.00
2018-09-05T09:51:36.638Z,5576.00
2018-09-05T09:52:36.629Z,5380.00
2018-09-05T09:53:36.627Z,5272.00
2018-09-05T09:54:36.608Z,5200.00
2018-09-05T09:55:36.599Z,5088.00
2018-09-05T09:56:36.666Z,4976.00
2018-09-05T09:57:36.576Z,4892.00
2018-09-05T09:58:36.570Z,4816.00
2018-09-05T09:59:36.548Z,4696.00
2018-09-05T10:00:36.538Z,4604.00
2018-09-05T10:01:36.527Z,4540.00
2018-09-05T10:02:36.517Z,4480.00
2018-09-05T10:03:36.729Z,4452.00
2018-09-05T10:04:36.508Z,4420.00
2018-09-05T10:05:36.484Z,4388.00
2018-09-05T10:06:36.475Z,4340.00
2018-09-05T10:07:36.457Z,4276.00
2018-09-05T10:08:36.462Z,4240.00
2018-09-05T10:09:36.507Z,4212.00
2018-09-05T10:10:36.494Z,4220.00
2018-09-05T10:11:36.416Z,4216.00
2018-09-05T10:12:36.407Z,4192.00
2018-09-05T10:13:36.416Z,4196.00
2018-09-05T10:14:36.382Z,4176.00
2018-09-05T10:15:36.370Z,4128.00
2018-09-05T10:16:36.359Z,4088.00
2018-09-05T10:17:36.349Z,4044.00
2018-09-05T10:18:36.346Z,4052.00
2018-09-05T10:19:36.329Z,4020.00
2018-09-05T10:20:36.313Z,3960.00
2018-09-05T10:21:36.306Z,3944.00
2018-09-05T10:22:36.363Z,3920.00
2018-09-05T10:23:36.289Z,3904.00
2018-09-05T10:24:36.269Z,3884.00
2018-09-05T10:25:36.273Z,3888.00
2018-09-05T10:26:36.247Z,3868.00
2018-09-05T10:27:36.240Z,3836.00
2018-09-05T10:28:36.233Z,3780.00
2018-09-05T10:29:36.214Z,3760.00
2018-09-05T10:30:36.200Z,3732.00
2018-09-05T10:31:36.195Z,3740.00
2018-09-05T10:32:36.178Z,3716.00
2018-09-05T10:33:36.178Z,3716.00
2018-09-05T10:34:36.156Z,3668.00
2018-09-05T10:35:36.145Z,3612.00
2018-09-05T10:36:36.133Z,3612.00
2018-09-05T10:37:36.122Z,3596.00
2018-09-05T10:38:36.125Z,3608.00
2018-09-05T10:39:36.101Z,3636.00
2018-09-05T10:40:36.093Z,3684.00
2018-09-05T10:41:36.316Z,3700.00
2018-09-05T10:42:36.074Z,3724.00
2018-09-05T10:43:36.081Z,3772.00
2018-09-05T10:44:36.052Z,3784.00
2018-09-05T10:45:36.036Z,3808.00
2018-09-05T10:46:36.225Z,3800.00
2018-09-05T10:47:36.015Z,3788.00
2018-09-05T10:48:36.570Z,3916.00
2018-09-05T10:49:36.243Z,4004.00
2018-09-05T10:50:35.977Z,3960.00
2018-09-05T10:51:35.998Z,3936.00
2018-09-05T10:52:36.178Z,3932.00
2018-09-05T10:53:35.966Z,3856.00
2018-09-05T10:54:35.938Z,3828.00
2018-09-05T10:55:35.928Z,3800.00
2018-09-05T10:56:35.920Z,3744.00
2018-09-05T10:57:35.924Z,3716.00
2018-09-05T10:58:35.917Z,3716.00
2018-09-05T10:59:35.886Z,3732.00
2018-09-05T11:00:35.872Z,3720.00
2018-09-05T11:01:35.861Z,3736.00
2018-09-05T11:02:35.849Z,3752.00
2018-09-05T11:03:35.851Z,3728.00
2018-09-05T11:04:35.826Z,3692.00
2018-09-05T11:05:35.954Z,3656.00
2018-09-05T11:06:35.803Z,3632.00
2018-09-05T11:07:35.796Z,3616.00
2018-09-05T11:08:35.862Z,3648.00
2018-09-05T11:09:35.771Z,3796.00
2018-09-05T11:10:35.843Z,3980.00
2018-09-05T11:11:35.743Z,4160.00
2018-09-05T11:12:35.762Z,4040.00
2018-09-05T11:13:35.734Z,3972.00
2018-09-05T11:14:35.730Z,3920.00
2018-09-05T11:15:35.697Z,3692.00
2018-09-05T11:16:35.697Z,3544.00
2018-09-05T11:17:35.682Z,3520.00
2018-09-05T11:18:35.680Z,3452.00
2018-09-05T11:19:35.672Z,3444.00
2018-09-05T11:20:35.650Z,3476.00
2018-09-05T11:21:35.745Z,3528.00
2018-09-05T11:22:35.624Z,3496.00
2018-09-05T11:23:35.612Z,3472.00
2018-09-05T11:24:35.622Z,3512.00
2018-09-05T11:25:35.588Z,3600.00
2018-09-05T11:26:35.581Z,3688.00
2018-09-05T11:27:35.596Z,3844.00
2018-09-05T11:28:35.559Z,4064.00
2018-09-05T11:29:35.559Z,4212.00
2018-09-05T11:30:35.535Z,4316.00
2018-09-05T11:31:35.520Z,4260.00
2018-09-05T11:32:35.514Z,4216.00
2018-09-05T11:33:35.503Z,4108.00
2018-09-05T11:34:35.508Z,3960.00
2018-09-05T11:35:35.476Z,3896.00
2018-09-05T11:36:35.465Z,3964.00
2018-09-05T11:37:35.457Z,3984.00
2018-09-05T11:38:35.453Z,3812.00
2018-09-05T11:39:35.472Z,3596.00
2018-09-05T11:40:35.422Z,3424.00
2018-09-05T11:41:35.417Z,3224.00
2018-09-05T11:42:35.429Z,3180.00
2018-09-05T11:43:35.392Z,3328.00
2018-09-05T11:44:35.397Z,3512.00
2018-09-05T11:45:35.400Z,3496.00
2018-09-05T11:46:35.358Z,3140.00
2018-09-05T11:47:35.347Z,3064.00
2018-09-05T11:48:35.334Z,3036.00
2018-09-05T11:49:35.340Z,3056.00
2018-09-05T11:50:35.320Z,3076.00
2018-09-05T11:51:35.307Z,3088.00
2018-09-05T11:52:35.291Z,3128.00
2018-09-05T11:53:35.283Z,3232.00
2018-09-05T11:54:35.282Z,3224.00
2018-09-05T11:55:35.258Z,3252.00
2018-09-05T11:56:35.248Z,3244.00
2018-09-05T11:57:35.236Z,3320.00
2018-09-05T11:58:35.236Z,3332.00
2018-09-05T11:59:35.260Z,3380.00
2018-09-05T12:00:35.207Z,3328.00
2018-09-05T12:01:35.202Z,3364.00
2018-09-05T12:02:35.187Z,3392.00
2018-09-05T12:03:35.168Z,3396.00
2018-09-05T12:04:35.176Z,3228.00
2018-09-05T12:05:35.158Z,2868.00
2018-09-05T12:06:35.134Z,2548.00
2018-09-05T12:07:35.128Z,2492.00
2018-09-05T12:08:35.115Z,2460.00
2018-09-05T12:09:35.119Z,2692.00
2018-09-05T12:10:35.092Z,2800.00
2018-09-05T12:11:35.106Z,2904.00
2018-09-05T12:12:35.069Z,2892.00
2018-09-05T12:13:35.072Z,2824.00
2018-09-05T12:14:35.066Z,2884.00
2018-09-05T12:15:35.034Z,2996.00
2018-09-05T12:16:35.022Z,3240.00
2018-09-05T12:17:35.023Z,3524.00
2018-09-05T12:18:35.016Z,3704.00
2018-09-05T12:19:35.004Z,3636.00
2018-09-05T12:20:34.989Z,3452.00
2018-09-05T12:21:34.965Z,3136.00
2018-09-05T12:22:34.966Z,2872.00
2018-09-05T12:23:34.947Z,2820.00
2018-09-05T12:24:34.950Z,2824.00
2018-09-05T12:25:34.927Z,2796.00
2018-09-05T12:26:34.911Z,2724.00
2018-09-05T12:27:34.902Z,2656.00
2018-09-05T12:28:34.891Z,2596.00
2018-09-05T12:29:34.898Z,2576.00
2018-09-05T12:30:34.873Z,2580.00
2018-09-05T12:31:34.855Z,2588.00
2018-09-05T12:32:34.847Z,2540.00
2018-09-05T12:33:34.837Z,2464.00
2018-09-05T12:34:34.833Z,2504.00
2018-09-05T12:35:34.812Z,2536.00
2018-09-05T12:36:34.826Z,2464.00
2018-09-05T12:37:34.793Z,2528.00
2018-09-05T12:38:34.779Z,2540.00
2018-09-05T12:39:34.822Z,2408.00
2018-09-05T12:40:34.754Z,2520.00
2018-09-05T12:41:34.755Z,2500.00
2018-09-05T12:42:34.747Z,2636.00
2018-09-05T12:43:34.726Z,2704.00
2018-09-05T12:44:34.772Z,2692.00
2018-09-05T12:45:34.708Z,2572.00
2018-09-05T12:46:34.694Z,2604.00
2018-09-05T12:47:34.687Z,2736.00
2018-09-05T12:48:34.672Z,3280.00
2018-09-05T12:49:34.680Z,4160.00
2018-09-05T12:50:34.645Z,4632.00
2018-09-05T12:51:34.630Z,5000.00
2018-09-05T12:52:34.624Z,5232.00
2018-09-05T12:53:34.611Z,5140.00
2018-09-05T12:54:34.616Z,4776.00
2018-09-05T12:55:34.593Z,4520.00
2018-09-05T12:56:34.578Z,4256.00
2018-09-05T12:57:34.568Z,4296.00
2018-09-05T12:58:34.567Z,4296.00
2018-09-05T12:59:34.564Z,4440.00
2018-09-05T13:00:34.532Z,4488.00
2018-09-05T13:01:34.519Z,4460.00
2018-09-05T13:02:34.510Z,4276.00
2018-09-05T13:03:34.506Z,4268.00
2018-09-05T13:04:34.498Z,4416.00
2018-09-05T13:05:34.542Z,4620.00
2018-09-05T13:06:34.468Z,4792.00
2018-09-05T13:07:34.453Z,4820.00
2018-09-05T13:08:34.442Z,4584.00
2018-09-05T13:09:34.441Z,4336.00
2018-09-05T13:10:34.418Z,4480.00
2018-09-05T13:11:34.411Z,4620.00
2018-09-05T13:12:34.398Z,4720.00
2018-09-05T13:13:34.394Z,4768.00
2018-09-05T13:14:34.378Z,4960.00
2018-09-05T13:15:34.372Z,5044.00
2018-09-05T13:16:34.353Z,4716.00
2018-09-05T13:17:34.340Z,4236.00
2018-09-05T13:18:34.330Z,3812.00
2018-09-05T13:19:34.321Z,3348.00
2018-09-05T13:20:34.322Z,3008.00
2018-09-05T13:21:34.358Z,2828.00
2018-09-05T13:22:34.287Z,2828.00
2018-09-05T13:23:34.274Z,2876.00
2018-09-05T13:24:34.265Z,2972.00
2018-09-05T13:25:34.262Z,3216.00
2018-09-05T13:26:34.261Z,3404.00
2018-09-05T13:27:34.230Z,3600.00
2018-09-05T13:28:34.218Z,3444.00
2018-09-05T13:29:34.210Z,2952.00
2018-09-05T13:30:34.210Z,2776.00
2018-09-05T13:31:34.385Z,3008.00
2018-09-05T13:32:34.178Z,3316.00
2018-09-05T13:33:34.166Z,3324.00
2018-09-05T13:34:34.153Z,3300.00
2018-09-05T13:35:34.153Z,2988.00
2018-09-05T13:36:34.140Z,2924.00
2018-09-05T13:37:34.120Z,3060.00
2018-09-05T13:38:34.110Z,2944.00
2018-09-05T13:39:34.101Z,2952.00
2018-09-05T13:40:34.101Z,2892.00
2018-09-05T13:41:34.076Z,2856.00
2018-09-05T13:42:34.079Z,2808.00
2018-09-05T13:43:34.053Z,2612.00
2018-09-05T13:44:34.040Z,2588.00
2018-09-05T13:45:34.045Z,2536.00
2018-09-05T13:46:34.021Z,2492.00
2018-09-05T13:47:34.021Z,2404.00
2018-09-05T13:48:33.998Z,2324.00
2018-09-05T13:49:33.985Z,2420.00
2018-09-05T13:50:33.985Z,2480.00
2018-09-05T13:51:33.963Z,2392.00
2018-09-05T13:52:33.953Z,2380.00
2018-09-05T13:53:33.941Z,2280.00
2018-09-05T13:54:33.931Z,2464.00
2018-09-05T13:55:33.931Z,2608.00
2018-09-05T13:56:33.908Z,2700.00
2018-09-05T13:57:33.898Z,2656.00
2018-09-05T13:58:33.888Z,2620.00
2018-09-05T13:59:33.875Z,2440.00
2018-09-05T14:00:33.875Z,2124.00
2018-09-05T14:01:33.853Z,1864.00
2018-09-05T14:02:33.843Z,1680.00
2018-09-05T14:03:33.832Z,1616.00
2018-09-05T14:04:33.841Z,1624.00
2018-09-05T14:05:33.817Z,1676.00
2018-09-05T14:06:33.806Z,1736.00
2018-09-05T14:07:33.786Z,1792.00
2018-09-05T14:08:33.776Z,1820.00
2018-09-05T14:09:33.765Z,1880.00
2018-09-05T14:10:33.764Z,1936.00
2018-09-05T14:11:33.743Z,1980.00
2018-09-05T14:12:33.734Z,2048.00
2018-09-05T14:13:33.728Z,2096.00
2018-09-05T14:14:33.712Z,1940.00
2018-09-05T14:15:33.720Z,1768.00
2018-09-05T14:16:33.702Z,1756.00
2018-09-05T14:17:33.680Z,1856.00
2018-09-05T14:18:33.688Z,1848.00
2018-09-05T14:19:33.679Z,1788.00
2018-09-05T14:20:33.736Z,1656.00
2018-09-05T14:21:33.632Z,1608.00
2018-09-05T14:22:33.627Z,1620.00
2018-09-05T14:23:33.609Z,1612.00
2018-09-05T14:24:33.602Z,1620.00
2018-09-05T14:25:33.607Z,1652.00
2018-09-05T14:26:33.587Z,1684.00
2018-09-05T14:27:33.652Z,1660.00
2018-09-05T14:28:33.556Z,1652.00
2018-09-05T14:29:33.543Z,1640.00
2018-09-05T14:30:33.560Z,1636.00
2018-09-05T14:31:33.521Z,1620.00
2018-09-05T14:32:33.517Z,1576.00
2018-09-05T14:33:33.498Z,1548.00
2018-09-05T14:34:33.497Z,1540.00
2018-09-05T14:35:33.488Z,1552.00
2018-09-05T14:36:33.466Z,1572.00
2018-09-05T14:37:33.451Z,1580.00
2018-09-05T14:38:33.444Z,1584.00
2018-09-05T14:39:33.430Z,1568.00
2018-09-05T14:40:33.461Z,1532.00
2018-09-05T14:41:33.408Z,1472.00
2018-09-05T14:42:33.397Z,1456.00
2018-09-05T14:43:33.386Z,1480.00
2018-09-05T14:44:33.421Z,1496.00
2018-09-05T14:45:33.375Z,1524.00
2018-09-05T14:46:33.352Z,1556.00
2018-09-05T14:47:33.342Z,1600.00
2018-09-05T14:48:33.387Z,1620.00
2018-09-05T14:49:33.323Z,1628.00
2018-09-05T14:50:33.541Z,1652.00
2018-09-05T14:51:33.297Z,1712.00
2018-09-05T14:52:36.557Z,1764.00
2018-09-05T14:53:33.281Z,1796.00
2018-09-05T14:54:33.273Z,1796.00
2018-09-05T14:55:33.269Z,1820.00
2018-09-05T14:56:33.379Z,1876.00
2018-09-05T14:57:33.231Z,1924.00
2018-09-05T14:58:33.221Z,1904.00
2018-09-05T14:59:33.212Z,1840.00
2018-09-05T15:00:33.212Z,1776.00
2018-09-05T15:01:33.187Z,1740.00
2018-09-05T15:02:33.175Z,1728.00
2018-09-05T15:03:33.168Z,1716.00
2018-09-05T15:04:33.153Z,1716.00
2018-09-05T15:05:33.160Z,1704.00
2018-09-05T15:06:33.216Z,1672.00
2018-09-05T15:07:33.120Z,1620.00
2018-09-05T15:08:33.108Z,1584.00
2018-09-05T15:09:33.101Z,1568.00
2018-09-05T15:10:33.099Z,1560.00
2018-09-05T15:11:33.202Z,1628.00
2018-09-05T15:12:33.064Z,1792.00
2018-09-05T15:13:33.052Z,1964.00
2018-09-05T15:14:33.041Z,2060.00
2018-09-05T15:15:33.056Z,2084.00
2018-09-05T15:16:33.018Z,2144.00
2018-09-05T15:17:33.032Z,2220.00
2018-09-05T15:18:32.998Z,2324.00
2018-09-05T15:19:32.998Z,2448.00
2018-09-05T15:20:32.976Z,2496.00
2018-09-05T15:21:32.980Z,2488.00
2018-09-05T15:22:32.957Z,2468.00
2018-09-05T15:23:32.951Z,2424.00
2018-09-05T15:24:32.932Z,2388.00
2018-09-05T15:25:32.921Z,2456.00
2018-09-05T15:26:32.923Z,2588.00
2018-09-05T15:27:32.900Z,2680.00
2018-09-05T15:28:32.887Z,2576.00
2018-09-05T15:29:32.878Z,2300.00
2018-09-05T15:30:32.868Z,2204.00
2018-09-05T15:31:32.870Z,2128.00
2018-09-05T15:32:32.844Z,2036.00
2018-09-05T15:33:32.831Z,1908.00
2018-09-05T15:34:32.820Z,1832.00
2018-09-05T15:35:32.821Z,1872.00
2018-09-05T15:36:32.811Z,2040.00
2018-09-05T15:37:32.789Z,2184.00
2018-09-05T15:38:32.775Z,2200.00
2018-09-05T15:39:32.855Z,2204.00
2018-09-05T15:40:32.802Z,2056.00
2018-09-05T15:41:32.757Z,1924.00
2018-09-05T15:42:32.731Z,1780.00
2018-09-05T15:43:32.723Z,1640.00
2018-09-05T15:44:32.708Z,1520.00
2018-09-05T15:45:32.698Z,1388.00
2018-09-05T15:46:32.696Z,1328.00
2018-09-05T15:47:32.681Z,1336.00
2018-09-05T15:48:32.779Z,1424.00
2018-09-05T15:49:32.653Z,1564.00
2018-09-05T15:50:32.642Z,1732.00
2018-09-05T15:51:32.643Z,1688.00
2018-09-05T15:52:32.627Z,1532.00
2018-09-05T15:53:32.608Z,1432.00
2018-09-05T15:54:32.601Z,1388.00
2018-09-05T15:55:32.587Z,1336.00
2018-09-05T15:56:32.586Z,1304.00
2018-09-05T15:57:32.597Z,1260.00
2018-09-05T15:58:32.554Z,1168.00
2018-09-05T15:59:32.545Z,1084.00
2018-09-05T16:00:32.533Z,1064.00
2018-09-05T16:01:32.530Z,1096.00
2018-09-05T16:02:32.567Z,1116.00
2018-09-05T16:03:32.590Z,1072.00
2018-09-05T16:04:32.488Z,1060.00
2018-09-05T16:05:32.486Z,1044.00
2018-09-05T16:06:32.478Z,992.00